Time;durP1;ratioP1;P1;durP2;ratioP2;P2;SDS_P1;SDS_P2;PMS_P1;PMS_P2;Temp;Humidity;BMP_temperature;BMP_pressure;BME280_temperature;BME280_humidity;BME280_pressure;Samples;Min_cycle;Max_cycle;Signal;HPM_P1;HPM_P2
2023/03/30 00:01:13;;;;;;;5.30;2.93;;;;;;;17.05;nan;99140.19;4917087;29;20443;-81
2023/03/30 00:03:43;;;;;;;7.70;3.07;;;;;;;16.98;nan;99140.75;4918582;29;20734;-79
2023/03/30 00:06:11;;;;;;;5.97;3.47;;;;;;;16.94;nan;99139.41;4919070;29;20438;-80
2023/03/30 00:08:37;;;;;;;7.73;3.30;;;;;;;16.87;nan;99125.06;4919880;29;20462;-79
2023/03/30 00:11:10;;;;;;;9.93;4.10;;;;;;;16.83;nan;99106.97;4918610;29;20445;-79
2023/03/30 00:13:36;;;;;;;11.07;4.10;;;;;;;16.76;nan;99110.16;4919575;29;20544;-79
2023/03/30 00:16:03;;;;;;;10.43;5.10;;;;;;;16.71;nan;99112.41;4916989;29;20564;-80
2023/03/30 00:18:28;;;;;;;8.77;4.50;;;;;;;16.69;nan;99108.25;4917582;29;20458;-79
2023/03/30 00:20:54;;;;;;;6.43;4.30;;;;;;;16.68;nan;99112.72;4917212;29;20593;-79
2023/03/30 00:23:20;;;;;;;7.93;4.03;;;;;;;16.67;nan;99126.97;4918845;29;20197;-80
2023/03/30 00:25:45;;;;;;;7.80;4.97;;;;;;;16.65;nan;99122.81;4918026;29;20341;-81
2023/03/30 00:28:11;;;;;;;9.80;4.23;;;;;;;16.63;nan;99133.53;4916149;29;20301;-79
2023/03/30 00:30:37;;;;;;;8.77;4.10;;;;;;;16.62;nan;99131.88;4916339;29;20191;-79
2023/03/30 00:33:02;;;;;;;12.10;4.43;;;;;;;16.60;nan;99139.16;4918970;29;20203;-79
2023/03/30 00:35:31;;;;;;;12.30;4.43;;;;;;;16.58;nan;99139.31;4916506;29;20469;-80
2023/03/30 00:38:00;;;;;;;7.03;3.20;;;;;;;16.60;nan;99125.88;4916732;29;20445;-80
2023/03/30 00:40:27;;;;;;;9.10;3.47;;;;;;;16.66;nan;99119.16;4921727;29;20774;-79
2023/03/30 00:43:10;;;;;;;5.03;3.33;;;;;;;16.73;nan;99123.72;4917860;29;20449;-79
2023/03/30 00:45:36;;;;;;;9.83;3.40;;;;;;;16.78;nan;99124.13;4910404;29;20525;-79
2023/03/30 00:48:14;;;;;;;4.83;2.57;;;;;;;16.87;nan;99127.72;4919428;29;20469;-80
2023/03/30 00:50:48;;;;;;;7.93;3.83;;;;;;;16.94;nan;99120.84;4918186;29;20500;-79
2023/03/30 00:53:19;;;;;;;12.50;3.60;;;;;;;17.00;nan;99120.22;4916790;29;20818;-79
2023/03/30 00:55:47;;;;;;;4.10;2.63;;;;;;;17.07;nan;99127.59;4915543;29;20473;-79
2023/03/30 00:58:15;;;;;;;10.67;3.13;;;;;;;17.14;nan;99139.25;4915662;29;20575;-80
2023/03/30 01:00:42;;;;;;;4.40;2.73;;;;;;;17.19;nan;99158.22;4915937;29;20441;-80
2023/03/30 01:03:18;;;;;;;10.77;3.10;;;;;;;17.21;nan;99172.19;4915879;29;20437;-79
2023/03/30 01:05:44;;;;;;;7.23;2.67;;;;;;;17.21;nan;99167.72;4917612;29;20786;-81
2023/03/30 01:08:15;;;;;;;5.20;2.83;;;;;;;17.23;nan;99160.44;4915137;29;20453;-81
2023/03/30 01:10:42;;;;;;;7.60;2.80;;;;;;;17.24;nan;99177.19;4916598;29;20437;-79
2023/03/30 01:13:09;;;;;;;5.77;2.50;;;;;;;17.23;nan;99162.25;4918777;29;20528;-81
2023/03/30 01:15:42;;;;;;;6.53;2.17;;;;;;;17.19;nan;99174.97;4917158;29;21414;-80
2023/03/30 01:18:29;;;;;;;14.87;4.90;;;;;;;17.16;nan;99177.09;4918077;29;20546;-81
2023/03/30 01:21:36;;;;;;;4.83;2.03;;;;;;;17.11;nan;99177.53;4916171;29;20871;-80
2023/03/30 01:24:10;;;;;;;8.27;3.83;;;;;;;17.05;nan;99195.91;4922226;29;20450;-79
2023/03/30 01:26:50;;;;;;;7.50;3.20;;;;;;;16.97;nan;99200.13;4918065;29;20529;-79
2023/03/30 01:29:33;;;;;;;5.90;2.33;;;;;;;16.93;nan;99195.25;4916476;29;20465;-79
2023/03/30 01:32:04;;;;;;;8.67;3.83;;;;;;;16.87;nan;99195.84;4918097;29;20484;-80
2023/03/30 01:35:01;;;;;;;10.77;3.00;;;;;;;16.85;nan;99192.50;4933067;29;20445;-80
2023/03/30 01:38:06;;;;;;;7.13;3.20;;;;;;;16.80;nan;99174.41;4920713;29;20444;-80
2023/03/30 01:40:34;;;;;;;9.60;3.00;;;;;;;16.72;nan;99168.97;4922415;29;20447;-80
2023/03/30 01:43:34;;;;;;;5.87;3.37;;;;;;;16.63;nan;99172.50;4924563;29;20441;-82
2023/03/30 01:46:14;;;;;;;9.18;2.53;;;;;;;16.54;nan;99158.31;4925983;29;20427;-81
2023/03/30 01:48:51;;;;;;;5.73;2.93;;;;;;;16.37;nan;99158.09;4939876;29;20319;-80
2023/03/30 01:51:28;;;;;;;7.20;3.93;;;;;;;16.23;nan;99149.75;4924577;29;20543;-81
2023/03/30 01:54:05;;;;;;;7.83;3.17;;;;;;;16.06;nan;99140.75;4924899;29;20444;-82
2023/03/30 01:56:38;;;;;;;5.10;2.97;;;;;;;15.92;nan;99123.50;4941967;29;20484;-81
2023/03/30 01:59:30;;;;;;;9.10;3.67;;;;;;;15.83;nan;99116.44;4940537;29;20479;-80
2023/03/30 02:02:01;;;;;;;8.93;3.20;;;;;;;15.72;nan;99113.97;4920407;29;20439;-80
2023/03/30 02:04:32;;;;;;;12.83;4.77;;;;;;;15.67;nan;99106.41;4919388;29;21096;-82
2023/03/30 02:07:06;;;;;;;10.40;3.27;;;;;;;15.62;nan;99111.28;4924069;29;20551;-81
2023/03/30 02:09:34;;;;;;;12.00;4.13;;;;;;;15.59;nan;99108.94;4925288;29;20482;-80
2023/03/30 02:12:02;;;;;;;6.03;3.15;;;;;;;15.55;nan;99094.28;4918035;29;20548;-81
2023/03/30 02:14:32;;;;;;;11.43;4.63;;;;;;;15.54;nan;99077.59;4926956;29;20646;-81
2023/03/30 02:17:13;;;;;;;5.35;2.85;;;;;;;15.53;nan;99077.72;4926630;29;20217;-82
2023/03/30 02:19:38;;;;;;;7.93;3.30;;;;;;;15.56;nan;99090.69;4917963;29;20223;-81
2023/03/30 02:22:05;;;;;;;11.50;3.30;;;;;;;15.56;nan;99078.28;4938752;29;20200;-82
2023/03/30 02:24:31;;;;;;;6.35;3.10;;;;;;;15.59;nan;99071.88;4926563;29;20201;-81
2023/03/30 02:26:58;;;;;;;7.28;4.57;;;;;;;15.62;nan;99066.28;4922595;29;20247;-82
2023/03/30 02:29:23;;;;;;;9.85;3.55;;;;;;;15.63;nan;99054.72;4923552;29;20302;-81
2023/03/30 02:31:53;;;;;;;14.07;3.80;;;;;;;15.63;nan;99039.66;4924135;29;20677;-81
2023/03/30 02:34:21;;;;;;;9.98;2.47;;;;;;;15.61;nan;99033.69;4944269;29;20265;-81
2023/03/30 02:37:06;;;;;;;6.85;3.38;;;;;;;15.61;nan;99017.81;4920240;29;20286;-81
2023/03/30 02:39:56;;;;;;;11.13;4.90;;;;;;;15.59;nan;99006.50;4941408;29;20243;-80
2023/03/30 02:42:36;;;;;;;12.00;3.30;;;;;;;15.58;nan;99002.22;4938004;29;20195;-81
2023/03/30 02:45:12;;;;;;;11.65;4.20;;;;;;;15.57;nan;98991.75;4915065;29;20282;-80
2023/03/30 02:47:56;;;;;;;8.60;3.83;;;;;;;15.54;nan;98992.88;4916278;29;20203;-81
2023/03/30 02:50:50;;;;;;;8.85;4.68;;;;;;;15.53;nan;98990.34;4915765;29;20665;-80
2023/03/30 02:53:41;;;;;;;6.20;3.05;;;;;;;15.53;nan;98996.50;4922038;29;20212;-80
2023/03/30 02:56:45;;;;;;;10.43;3.55;;;;;;;15.52;nan;98981.59;4921881;29;20249;-80
2023/03/30 02:59:18;;;;;;;15.10;4.03;;;;;;;15.49;nan;98976.59;4894107;29;20332;-81
2023/03/30 03:01:57;;;;;;;7.65;3.30;;;;;;;15.46;nan;98971.59;4937314;29;20194;-81
2023/03/30 03:04:27;;;;;;;10.40;3.85;;;;;;;15.44;nan;98963.78;4918780;29;20194;-81
2023/03/30 03:07:13;;;;;;;12.40;3.50;;;;;;;15.41;nan;98960.59;4935773;29;20187;-81
2023/03/30 03:09:40;;;;;;;9.13;2.90;;;;;;;15.37;nan;98957.41;4920560;29;20212;-82
2023/03/30 03:12:05;;;;;;;10.00;3.58;;;;;;;15.36;nan;98954.91;4924125;29;20567;-80
2023/03/30 03:14:36;;;;;;;9.95;3.15;;;;;;;15.35;nan;98946.13;4919857;29;20206;-80
2023/03/30 03:17:03;;;;;;;7.45;3.85;;;;;;;15.33;nan;98953.38;4920830;29;20222;-80
2023/03/30 03:19:32;;;;;;;17.20;4.68;;;;;;;15.30;nan;98964.25;4940918;29;20219;-80
2023/03/30 03:21:58;;;;;;;7.07;3.33;;;;;;;15.27;nan;98957.44;4936592;29;20243;-81
2023/03/30 03:24:26;;;;;;;8.23;4.03;;;;;;;15.27;nan;98944.19;4920911;29;20219;-80
2023/03/30 03:27:01;;;;;;;6.88;2.75;;;;;;;15.27;nan;98946.84;4921099;29;20289;-80
2023/03/30 03:29:30;;;;;;;7.43;4.20;;;;;;;15.25;nan;98946.16;4918014;29;20607;-81
2023/03/30 03:31:55;;;;;;;12.67;3.90;;;;;;;15.24;nan;98952.44;4932630;29;20188;-81
2023/03/30 03:34:30;;;;;;;14.50;2.78;;;;;;;15.22;nan;98948.25;4918950;29;20185;-81
2023/03/30 03:37:02;;;;;;;8.85;3.40;;;;;;;15.18;nan;98944.25;4914086;29;20207;-80
2023/03/30 03:39:31;;;;;;;8.48;4.13;;;;;;;15.17;nan;98947.84;4929765;23;20332;-77
2023/03/30 03:42:05;;;;;;;8.43;3.50;;;;;;;15.13;nan;98936.72;4887832;29;20204;-76
2023/03/30 03:44:32;;;;;;;10.30;3.50;;;;;;;15.12;nan;98929.78;4925546;29;20545;-76
2023/03/30 03:46:57;;;;;;;10.73;3.83;;;;;;;15.11;nan;98937.84;4913692;29;20197;-76
2023/03/30 03:49:23;;;;;;;8.20;3.70;;;;;;;15.11;nan;98929.91;4902994;29;20218;-76
2023/03/30 03:51:48;;;;;;;8.17;3.90;;;;;;;15.11;nan;98933.38;4897185;29;20278;-76
2023/03/30 03:54:14;;;;;;;6.50;3.80;;;;;;;15.11;nan;98924.63;4900430;29;20259;-77
2023/03/30 03:56:41;;;;;;;7.90;3.42;;;;;;;15.10;nan;98921.16;4903763;29;20535;-76
2023/03/30 03:59:06;;;;;;;10.60;3.13;;;;;;;15.12;nan;98921.00;4913097;29;20219;-77
2023/03/30 04:01:32;;;;;;;7.30;3.50;;;;;;;15.12;nan;98927.13;4899064;29;20486;-76
2023/03/30 04:03:57;;;;;;;10.60;4.53;;;;;;;15.12;nan;98918.34;4899270;29;20596;-77
2023/03/30 04:06:23;;;;;;;8.33;4.63;;;;;;;15.10;nan;98926.44;4915042;29;20201;-76
2023/03/30 04:08:48;;;;;;;12.10;4.13;;;;;;;15.07;nan;98918.78;4903782;29;20233;-77
2023/03/30 04:11:22;;;;;;;11.70;4.05;;;;;;;15.04;nan;98917.28;4913573;29;20235;-77
2023/03/30 04:14:06;;;;;;;9.20;3.88;;;;;;;15.01;nan;98908.75;4900014;29;20206;-77
2023/03/30 04:16:40;;;;;;;10.23;5.32;;;;;;;15.00;nan;98907.09;4895552;29;20709;-77
2023/03/30 04:19:24;;;;;;;16.58;4.60;;;;;;;14.97;nan;98902.94;4909279;29;20574;-77
2023/03/30 04:22:01;;;;;;;10.77;4.30;;;;;;;14.96;nan;98885.41;4894772;29;20609;-77
2023/03/30 04:24:47;;;;;;;8.02;4.65;;;;;;;14.93;nan;98883.06;4903700;29;20194;-78
2023/03/30 04:27:36;;;;;;;12.07;4.63;;;;;;;14.88;nan;98876.50;4908278;29;20200;-78
2023/03/30 04:30:21;;;;;;;9.93;3.80;;;;;;;14.85;nan;98887.38;4906697;29;20234;-78
2023/03/30 04:33:10;;;;;;;15.15;7.18;;;;;;;14.82;nan;98881.41;4908553;29;20263;-77
2023/03/30 04:36:01;;;;;;;11.48;5.40;;;;;;;14.82;nan;98878.78;4902343;29;20229;-78
2023/03/30 04:38:59;;;;;;;12.77;5.43;;;;;;;14.80;nan;98891.28;4908587;29;20242;-78
2023/03/30 04:41:53;;;;;;;14.27;6.43;;;;;;;14.81;nan;98897.41;4907809;29;20266;-77
2023/03/30 04:44:54;;;;;;;11.15;5.10;;;;;;;14.81;nan;98911.47;4907815;29;20213;-78
2023/03/30 04:47:19;;;;;;;12.80;6.87;;;;;;;14.82;nan;98923.72;4906877;29;20195;-78
2023/03/30 04:50:05;;;;;;;9.68;4.80;;;;;;;14.83;nan;98933.31;4907613;29;20212;-77
2023/03/30 04:52:37;;;;;;;13.15;4.18;;;;;;;14.80;nan;98938.06;4907841;29;20264;-77
2023/03/30 04:55:30;;;;;;;9.20;3.78;;;;;;;14.73;nan;98931.66;4920654;29;20220;-78
2023/03/30 04:58:15;;;;;;;10.80;4.15;;;;;;;14.70;nan;98937.22;4907448;29;20920;-78
2023/03/30 05:01:18;;;;;;;9.18;3.67;;;;;;;14.68;nan;98937.34;4905803;29;20201;-77
2023/03/30 05:04:06;;;;;;;13.88;3.75;;;;;;;14.71;nan;98938.88;4922933;29;20238;-78
2023/03/30 05:06:50;;;;;;;7.35;3.90;;;;;;;14.74;nan;98928.88;4909716;29;20215;-78
2023/03/30 05:09:29;;;;;;;7.03;3.85;;;;;;;14.78;nan;98922.31;4909983;29;20620;-78
2023/03/30 05:12:15;;;;;;;10.55;4.38;;;;;;;14.83;nan;98937.75;4911999;29;20259;-78
2023/03/30 05:14:53;;;;;;;10.60;4.72;;;;;;;14.88;nan;98956.69;4928379;29;20193;-77
2023/03/30 05:17:24;;;;;;;12.95;5.50;;;;;;;14.92;nan;98954.59;4912820;29;20205;-78
2023/03/30 05:20:17;;;;;;;9.75;5.43;;;;;;;14.98;nan;98957.50;4903559;29;20242;-77
2023/03/30 05:22:55;;;;;;;10.02;4.43;;;;;;;15.02;nan;98955.41;4923577;29;20695;-78
2023/03/30 05:25:47;;;;;;;17.20;4.22;;;;;;;15.04;nan;98983.38;4917617;29;20283;-78
2023/03/30 05:28:43;;;;;;;8.70;4.20;;;;;;;15.01;nan;99004.84;4923147;29;20233;-78
2023/03/30 05:31:18;;;;;;;5.85;4.43;;;;;;;15.02;nan;98985.34;4906540;29;20209;-78
2023/03/30 05:34:03;;;;;;;12.38;4.90;;;;;;;15.03;nan;98967.66;4908928;29;20281;-78
2023/03/30 05:36:44;;;;;;;18.60;5.30;;;;;;;15.04;nan;98964.88;4909566;29;20216;-78
2023/03/30 05:39:40;;;;;;;12.02;4.57;;;;;;;15.07;nan;98969.06;4906167;29;20252;-78
2023/03/30 05:42:24;;;;;;;8.00;4.80;;;;;;;15.12;nan;98969.47;4910726;29;20201;-78
2023/03/30 05:45:08;;;;;;;11.68;5.55;;;;;;;15.16;nan;98970.00;4905712;29;20557;-78
2023/03/30 05:47:53;;;;;;;8.38;4.68;;;;;;;15.18;nan;98968.88;4902690;29;20580;-78
2023/03/30 05:50:51;;;;;;;13.35;3.97;;;;;;;15.21;nan;98989.75;4886444;29;20230;-77
2023/03/30 05:53:36;;;;;;;13.15;3.90;;;;;;;15.25;nan;99006.16;4897052;29;20201;-77
2023/03/30 05:56:23;;;;;;;12.60;6.43;;;;;;;15.26;nan;99015.81;4916128;29;20224;-77
2023/03/30 05:59:09;;;;;;;17.20;8.20;;;;;;;15.29;nan;99034.03;4900983;29;20636;-78
2023/03/30 06:02:05;;;;;;;7.32;4.90;;;;;;;15.30;nan;99056.84;4895839;29;20556;-77
2023/03/30 06:04:32;;;;;;;16.42;6.68;;;;;;;15.29;nan;99059.66;4919926;29;20479;-78
2023/03/30 06:06:59;;;;;;;13.27;5.00;;;;;;;15.27;nan;99063.28;4926424;29;20200;-77
2023/03/30 06:09:25;;;;;;;15.47;4.60;;;;;;;15.28;nan;99074.69;4910093;29;20224;-77
2023/03/30 06:11:51;;;;;;;12.88;5.03;;;;;;;15.29;nan;99081.66;4914397;29;20197;-77
2023/03/30 06:14:21;;;;;;;6.85;4.65;;;;;;;15.29;nan;99091.41;4924146;29;20663;-77
2023/03/30 06:17:17;;;;;;;10.15;4.20;;;;;;;15.27;nan;99100.31;4924336;29;20202;-77
2023/03/30 06:19:43;;;;;;;6.15;4.05;;;;;;;15.26;nan;99109.25;4924249;29;20220;-77
2023/03/30 06:22:08;;;;;;;10.87;3.90;;;;;;;15.26;nan;99111.06;4925165;29;20194;-77
2023/03/30 06:24:39;;;;;;;7.30;3.10;;;;;;;15.25;nan;99120.78;4922865;29;20245;-77
2023/03/30 06:27:04;;;;;;;8.03;3.37;;;;;;;15.23;nan;99106.88;4908580;29;20256;-77
2023/03/30 06:29:30;;;;;;;9.30;3.77;;;;;;;15.21;nan;99108.00;4908913;29;20266;-77
2023/03/30 06:31:57;;;;;;;7.10;3.03;;;;;;;15.21;nan;99116.75;4925322;29;20197;-77
2023/03/30 06:34:46;;;;;;;7.95;4.18;;;;;;;15.20;nan;99117.75;4918173;29;20197;-77
2023/03/30 06:37:12;;;;;;;10.45;5.50;;;;;;;15.20;nan;99108.94;4926924;29;20879;-78
2023/03/30 06:39:38;;;;;;;14.10;5.77;;;;;;;15.21;nan;99111.47;4909594;29;20232;-77
2023/03/30 06:42:05;;;;;;;7.65;4.80;;;;;;;15.22;nan;99118.41;4932917;29;20199;-77
2023/03/30 06:44:41;;;;;;;7.20;4.95;;;;;;;15.23;nan;99117.47;4910489;29;20391;-78
2023/03/30 06:47:11;;;;;;;6.68;4.65;;;;;;;15.21;nan;99106.16;4926975;29;20218;-77
2023/03/30 06:49:37;;;;;;;8.67;4.37;;;;;;;15.15;nan;99090.84;4920348;29;20260;-77
2023/03/30 06:52:29;;;;;;;7.10;3.33;;;;;;;15.12;nan;99080.56;4900472;29;20204;-77
2023/03/30 06:54:55;;;;;;;8.80;4.18;;;;;;;15.14;nan;99062.72;4919296;29;20206;-77
2023/03/30 06:57:20;;;;;;;9.87;3.90;;;;;;;15.18;nan;99072.06;4918014;29;20209;-78
2023/03/30 06:59:46;;;;;;;6.80;4.17;;;;;;;15.19;nan;99094.88;4904252;29;20218;-78
2023/03/30 07:02:20;;;;;;;10.77;5.78;;;;;;;15.19;nan;99118.69;4904208;29;20202;-77
2023/03/30 07:05:23;;;;;;;6.95;4.43;;;;;;;15.22;nan;99107.00;4883736;29;20389;-77
2023/03/30 07:08:07;;;;;;;10.48;3.83;;;;;;;15.20;nan;99120.38;4899565;29;20208;-77
2023/03/30 07:10:33;;;;;;;9.10;6.40;;;;;;;15.19;nan;99104.63;4917824;29;20512;-77
2023/03/30 07:13:01;;;;;;;9.55;4.85;;;;;;;15.19;nan;99118.69;4908958;29;20206;-77
2023/03/30 07:15:28;;;;;;;6.10;3.03;;;;;;;15.19;nan;99145.16;4916180;29;20216;-77
2023/03/30 07:17:54;;;;;;;5.25;2.72;;;;;;;15.23;nan;99146.56;4917182;29;20192;-77
2023/03/30 07:20:20;;;;;;;8.53;3.43;;;;;;;15.30;nan;99161.88;4902937;29;20276;-78
2023/03/30 07:22:57;;;;;;;4.85;3.53;;;;;;;15.32;nan;99166.06;4916126;29;20195;-77
2023/03/30 07:25:23;;;;;;;6.07;3.60;;;;;;;15.34;nan;99176.47;4901082;29;20187;-78
2023/03/30 07:27:49;;;;;;;13.23;4.33;;;;;;;15.32;nan;99181.09;4915176;29;20188;-77
2023/03/30 07:30:15;;;;;;;7.97;3.13;;;;;;;15.31;nan;99166.19;4916344;29;20716;-77
2023/03/30 07:32:41;;;;;;;7.07;3.05;;;;;;;15.30;nan;99175.09;4902002;29;20255;-77
2023/03/30 07:35:08;;;;;;;7.77;5.57;;;;;;;15.31;nan;99172.34;4903298;29;20304;-77
2023/03/30 07:37:37;;;;;;;6.80;3.55;;;;;;;15.34;nan;99195.88;4915266;29;20798;-77
2023/03/30 07:40:04;;;;;;;8.25;3.00;;;;;;;15.36;nan;99212.41;4899587;29;20709;-77
2023/03/30 07:42:30;;;;;;;6.68;3.60;;;;;;;15.39;nan;99211.31;4901708;29;20194;-77
2023/03/30 07:44:55;;;;;;;8.73;5.20;;;;;;;15.43;nan;99220.66;4899341;29;20706;-77
2023/03/30 07:47:22;;;;;;;8.95;3.33;;;;;;;15.47;nan;99216.75;4917248;29;21060;-77
2023/03/30 07:49:47;;;;;;;7.37;3.10;;;;;;;15.51;nan;99217.31;4913433;29;20219;-77
2023/03/30 07:52:12;;;;;;;5.70;3.20;;;;;;;15.54;nan;99215.22;4914997;29;20238;-77
2023/03/30 07:54:47;;;;;;;8.68;3.38;;;;;;;15.56;nan;99226.53;4912686;29;20234;-77
2023/03/30 07:57:20;;;;;;;6.65;3.90;;;;;;;15.56;nan;99231.81;4911460;29;20742;-77
2023/03/30 07:59:46;;;;;;;5.45;3.40;;;;;;;15.54;nan;99227.63;4911476;29;20252;-77
2023/03/30 08:02:27;;;;;;;6.47;3.35;;;;;;;15.50;nan;99205.91;4900080;29;20197;-77
2023/03/30 08:04:53;;;;;;;8.82;4.57;;;;;;;15.46;nan;99188.63;4916475;29;20582;-77
2023/03/30 08:07:26;;;;;;;12.65;4.50;;;;;;;15.48;nan;99184.03;4913162;29;20205;-77
2023/03/30 08:09:58;;;;;;;7.80;3.22;;;;;;;15.50;nan;99229.72;4916274;29;20268;-78
2023/03/30 08:12:24;;;;;;;8.63;4.03;;;;;;;15.50;nan;99272.09;4901456;29;20200;-77
2023/03/30 08:14:50;;;;;;;8.85;5.15;;;;;;;15.47;nan;99272.34;4901571;29;20268;-77
2023/03/30 08:17:16;;;;;;;13.57;4.05;;;;;;;15.44;nan;99254.91;4914047;29;20236;-78
2023/03/30 08:19:41;;;;;;;17.43;5.70;;;;;;;15.40;nan;99247.41;4912819;29;20209;-78
2023/03/30 08:22:06;;;;;;;8.40;3.50;;;;;;;15.35;nan;99234.56;4912034;29;20195;-77
2023/03/30 08:24:32;;;;;;;8.83;3.97;;;;;;;15.27;nan;99221.19;4911296;29;20231;-77
2023/03/30 08:26:57;;;;;;;8.73;3.90;;;;;;;15.16;nan;99229.25;4910731;29;20190;-77
2023/03/30 08:29:22;;;;;;;7.37;3.87;;;;;;;15.05;nan;99236.31;4906032;29;20701;-77
2023/03/30 08:31:49;;;;;;;7.77;4.40;;;;;;;14.99;nan;99238.69;4911750;29;20207;-77
2023/03/30 08:34:15;;;;;;;8.90;4.57;;;;;;;14.95;nan;99259.25;4930499;29;20442;-77
2023/03/30 08:36:40;;;;;;;28.90;19.10;;;;;;;14.91;nan;99272.91;4911627;29;20581;-77
2023/03/30 08:39:05;;;;;;;26.67;10.90;;;;;;;14.83;nan;99271.75;4912250;29;20288;-77
2023/03/30 08:42:01;;;;;;;11.20;6.60;;;;;;;14.73;nan;99275.31;4911497;29;20208;-77
2023/03/30 08:44:36;;;;;;;9.65;4.90;;;;;;;14.64;nan;99279.59;4911791;29;20219;-77
2023/03/30 08:47:04;;;;;;;12.48;3.72;;;;;;;14.62;nan;99252.44;4910638;29;20198;-77
2023/03/30 08:49:37;;;;;;;8.00;4.05;;;;;;;14.57;nan;99244.09;4913970;29;20668;-77
2023/03/30 08:52:04;;;;;;;6.55;3.72;;;;;;;14.51;nan;99257.78;4911502;29;20723;-77
2023/03/30 08:54:31;;;;;;;7.20;5.57;;;;;;;14.49;nan;99257.09;4912862;29;20192;-77
2023/03/30 08:57:10;;;;;;;8.07;4.35;;;;;;;14.49;nan;99257.09;4912649;29;20376;-77
2023/03/30 08:59:50;;;;;;;6.10;4.40;;;;;;;14.48;nan;99260.72;4911359;29;20223;-77
2023/03/30 09:02:29;;;;;;;9.25;4.50;;;;;;;14.51;nan;99276.28;4908612;29;20651;-77
2023/03/30 09:05:13;;;;;;;13.02;5.60;;;;;;;14.54;nan;99276.06;4908184;29;20267;-77
2023/03/30 09:07:51;;;;;;;11.45;6.68;;;;;;;14.55;nan;99283.84;4909871;29;20234;-77
2023/03/30 09:10:18;;;;;;;9.90;6.80;;;;;;;14.60;nan;99288.75;4909895;29;20226;-77
2023/03/30 09:12:54;;;;;;;8.52;5.68;;;;;;;14.58;nan;99280.09;4907041;29;20733;-77
2023/03/30 09:15:24;;;;;;;7.85;4.80;;;;;;;14.59;nan;99293.19;4906357;29;20218;-77
2023/03/30 09:18:00;;;;;;;11.75;5.53;;;;;;;14.62;nan;99288.63;4909177;29;20702;-77
2023/03/30 09:20:32;;;;;;;8.95;5.68;;;;;;;14.66;nan;99290.03;4909005;29;20211;-77
2023/03/30 09:23:00;;;;;;;5.57;5.03;;;;;;;14.68;nan;99298.66;4908095;29;20552;-77
2023/03/30 09:25:40;;;;;;;8.50;6.05;;;;;;;14.71;nan;99301.88;4910039;29;20675;-76
2023/03/30 09:28:22;;;;;;;7.63;5.38;;;;;;;14.72;nan;99306.22;4909818;29;20261;-77
2023/03/30 09:30:52;;;;;;;9.02;5.57;;;;;;;14.76;nan;99306.78;4908187;29;20199;-77
2023/03/30 09:33:24;;;;;;;7.50;5.55;;;;;;;14.78;nan;99304.84;4907404;29;20198;-77
2023/03/30 09:36:27;;;;;;;6.60;5.22;;;;;;;14.81;nan;99315.16;4907974;29;20210;-77
2023/03/30 09:38:58;;;;;;;7.82;4.85;;;;;;;14.78;nan;99316.25;4950204;23;20216;-81
2023/03/30 09:41:50;;;;;;;12.43;5.93;;;;;;;14.77;nan;99309.31;4910851;29;20239;-82
2023/03/30 09:44:30;;;;;;;6.05;4.60;;;;;;;14.78;nan;99310.13;4916509;29;20202;-81
2023/03/30 09:46:58;;;;;;;10.00;4.93;;;;;;;14.77;nan;99319.88;4923696;29;20193;-85
2023/03/30 09:49:28;;;;;;;8.63;5.40;;;;;;;14.81;nan;99309.88;4925076;29;20649;-79
2023/03/30 09:52:02;;;;;;;10.70;6.22;;;;;;;14.82;nan;99301.81;4925179;29;20780;-82
2023/03/30 09:54:38;;;;;;;5.57;4.55;;;;;;;14.85;nan;99305.97;4925979;29;20326;-84
2023/03/30 09:57:04;;;;;;;7.15;4.68;;;;;;;14.87;nan;99308.50;4927977;29;20219;-80
2023/03/30 09:59:36;;;;;;;7.75;4.10;;;;;;;14.86;nan;99312.97;4926349;29;20223;-83
2023/03/30 10:02:11;;;;;;;8.15;4.82;;;;;;;14.86;nan;99312.13;4927824;29;20200;-79
2023/03/30 10:04:51;;;;;;;4.75;3.90;;;;;;;14.85;nan;99324.50;4927136;29;20346;-82
2023/03/30 10:07:23;;;;;;;8.70;5.25;;;;;;;14.85;nan;99337.72;4929652;29;20190;-84
2023/03/30 10:09:49;;;;;;;11.20;3.97;;;;;;;14.87;nan;99340.22;4928019;29;20223;-82
2023/03/30 10:12:15;;;;;;;6.57;4.43;;;;;;;14.90;nan;99340.78;4926152;29;20191;-85
2023/03/30 10:14:40;;;;;;;4.83;4.30;;;;;;;14.89;nan;99333.00;4926559;29;20487;-82
2023/03/30 10:17:06;;;;;;;9.87;4.00;;;;;;;14.90;nan;99327.56;4923366;29;20226;-79
2023/03/30 10:19:34;;;;;;;9.50;4.33;;;;;;;14.91;nan;99329.28;4924623;29;20238;-84
2023/03/30 10:22:03;;;;;;;7.40;4.88;;;;;;;14.94;nan;99328.16;4922878;29;20648;-81
2023/03/30 10:24:31;;;;;;;8.20;4.28;;;;;;;14.97;nan;99317.31;4922145;29;20186;-82
2023/03/30 10:27:02;;;;;;;10.00;4.55;;;;;;;14.95;nan;99341.25;4926834;29;20186;-83
2023/03/30 10:29:28;;;;;;;5.25;3.58;;;;;;;14.99;nan;99349.78;4928175;29;20258;-83
2023/03/30 10:32:00;;;;;;;7.13;3.35;;;;;;;14.99;nan;99345.31;4927858;29;20192;-85
2023/03/30 10:34:38;;;;;;;7.68;4.18;;;;;;;14.99;nan;99347.97;4927828;29;20190;-86
2023/03/30 10:37:17;;;;;;;8.77;4.47;;;;;;;15.00;nan;99351.44;4927262;29;20223;-80
2023/03/30 10:39:46;;;;;;;4.70;3.95;;;;;;;15.02;nan;99362.72;4927426;29;20242;-82
2023/03/30 10:42:20;;;;;;;11.38;3.60;;;;;;;15.06;nan;99356.19;4929081;29;20194;-84
2023/03/30 10:45:00;;;;;;;5.88;3.80;;;;;;;15.05;nan;99358.00;4928248;29;20213;-86
2023/03/30 10:47:48;;;;;;;5.45;4.82;;;;;;;15.05;nan;99343.94;4943469;29;20199;-83
2023/03/30 10:50:19;;;;;;;9.02;3.88;;;;;;;15.08;nan;99348.97;4926241;29;20213;-84
2023/03/30 10:53:22;;;;;;;7.57;4.60;;;;;;;15.09;nan;99349.81;4926761;29;20214;-82
2023/03/30 10:56:14;;;;;;;8.85;4.60;;;;;;;15.12;nan;99349.53;4926940;29;20216;-81
2023/03/30 10:58:54;;;;;;;5.82;3.75;;;;;;;15.15;nan;99360.72;4927664;29;20232;-85
2023/03/30 11:02:16;;;;;;;;;;;;;;;;;;;;;
2023/03/30 11:05:21;;;;;;;10.80;4.50;;;;;;;15.17;nan;99353.44;4926378;29;20190;-84
2023/03/30 11:08:02;;;;;;;9.98;4.03;;;;;;;15.18;nan;99335.78;4927543;29;20207;-85
2023/03/30 11:10:33;;;;;;;9.25;3.75;;;;;;;15.18;nan;99344.56;4926906;29;20239;-82
2023/03/30 11:12:59;;;;;;;6.65;5.13;;;;;;;15.16;nan;99341.19;4924215;29;20188;-82
2023/03/30 11:15:30;;;;;;;6.63;4.03;;;;;;;15.14;nan;99364.31;4925910;29;20338;-81
2023/03/30 11:18:12;;;;;;;9.45;5.10;;;;;;;15.15;nan;99373.06;4925319;29;20242;-81
2023/03/30 11:20:47;;;;;;;7.82;4.13;;;;;;;15.13;nan;99357.34;4921496;29;20234;-79
2023/03/30 11:23:17;;;;;;;4.45;2.90;;;;;;;15.11;nan;99343.41;4919316;29;20199;-81
2023/03/30 11:26:05;;;;;;;6.45;3.45;;;;;;;15.09;nan;99344.50;4919436;29;20200;-80
2023/03/30 11:28:30;;;;;;;8.13;3.90;;;;;;;15.06;nan;99350.91;4934967;29;20221;-81
2023/03/30 11:31:03;;;;;;;6.70;2.90;;;;;;;15.10;nan;99365.56;4921050;29;20194;-84
2023/03/30 11:33:37;;;;;;;6.30;3.08;;;;;;;15.15;nan;99376.56;4922324;29;20201;-84
2023/03/30 11:36:29;;;;;;;6.53;3.65;;;;;;;15.23;nan;99386.50;4922812;29;20451;-84
2023/03/30 11:39:02;;;;;;;3.78;2.65;;;;;;;15.32;nan;99395.44;4923789;29;20330;-84
2023/03/30 11:41:54;;;;;;;5.88;3.53;;;;;;;15.42;nan;99405.09;4915717;29;20198;-83
2023/03/30 11:44:20;;;;;;;2.85;2.28;;;;;;;15.50;nan;99409.72;4916092;29;20203;-83
2023/03/30 11:47:13;;;;;;;4.03;2.50;;;;;;;15.61;nan;99399.03;4919294;29;20198;-82
2023/03/30 11:50:17;;;;;;;3.53;2.78;;;;;;;15.70;nan;99398.25;4915878;29;20216;-80
2023/03/30 11:52:47;;;;;;;7.90;2.22;;;;;;;15.71;nan;99388.47;4917455;29;20196;-82
2023/03/30 11:55:47;;;;;;;6.22;2.88;;;;;;;15.70;nan;99369.13;4924037;29;20203;-83
2023/03/30 11:58:36;;;;;;;2.88;2.67;;;;;;;15.70;nan;99366.47;4917873;29;20204;-80
2023/03/30 12:01:29;;;;;;;5.53;3.75;;;;;;;15.73;nan;99351.28;4921002;29;20240;-80
2023/03/30 12:04:05;;;;;;;4.13;2.25;;;;;;;15.83;nan;99347.69;4925601;29;20182;-83
2023/03/30 12:06:54;;;;;;;3.55;2.80;;;;;;;16.02;nan;99354.81;4923262;29;20222;-82
2023/03/30 12:09:25;;;;;;;8.05;2.60;;;;;;;16.23;nan;99343.22;4925193;29;20226;-83
2023/03/30 12:16:15;;;;;;;5.82;3.03;;;;;;;16.80;nan;99344.16;4893373;29;20477;-84
2023/03/30 12:19:01;;;;;;;13.73;3.83;;;;;;;16.95;nan;99347.16;4862960;29;20212;-84
2023/03/30 12:21:42;;;;;;;4.83;2.87;;;;;;;17.05;nan;99345.31;4914114;29;20571;-83
2023/03/30 12:24:48;;;;;;;3.13;2.40;;;;;;;17.13;nan;99334.00;4922682;29;20536;-85
2023/03/30 12:27:13;;;;;;;7.23;3.83;;;;;;;17.27;nan;99332.66;4895153;29;20457;-84
2023/03/30 12:29:52;;;;;;;11.63;5.40;;;;;;;17.44;nan;99321.25;4913125;29;20455;-84
2023/03/30 12:32:22;;;;;;;3.83;3.27;;;;;;;17.59;nan;99322.41;4912294;29;20197;-85